createdAt,value
2018-07-08T00:01:56.837Z,101950.39
2018-07-08T00:04:26.506Z,101945.52
2018-07-08T00:06:58.175Z,101945.13
2018-07-08T00:09:27.718Z,101952.37
2018-07-08T00:11:57.675Z,101951.20
2018-07-08T00:14:27.278Z,101949.53
2018-07-08T00:16:57.227Z,101955.27
2018-07-08T00:19:30.886Z,101951.91
2018-07-08T00:22:00.825Z,101956.55
2018-07-08T00:24:30.543Z,101952.23
2018-07-08T00:27:00.454Z,101950.98
2018-07-08T00:29:30.521Z,101948.44
2018-07-08T00:31:59.914Z,101950.28
2018-07-08T00:34:29.731Z,101952.53
2018-07-08T00:36:59.824Z,101948.66
2018-07-08T00:39:29.561Z,101947.26
2018-07-08T00:41:59.966Z,101944.97
2018-07-08T00:44:29.641Z,101946.91
2018-07-08T00:46:59.199Z,101943.91
2018-07-08T00:49:28.733Z,101951.28
2018-07-08T00:51:58.311Z,101956.98
2018-07-08T00:54:27.842Z,101958.31
2018-07-08T00:56:57.308Z,101963.27
2018-07-08T00:59:26.961Z,101963.08
2018-07-08T01:01:56.553Z,101965.05
2018-07-08T01:04:26.381Z,101970.64
2018-07-08T01:06:56.365Z,101972.05
2018-07-08T01:09:25.738Z,101975.16
2018-07-08T01:11:55.478Z,101975.55
2018-07-08T01:14:25.507Z,101980.14
2018-07-08T01:16:54.992Z,101976.05
2018-07-08T01:19:24.458Z,101976.69
2018-07-08T01:21:53.908Z,101979.69
2018-07-08T01:24:23.949Z,101980.84
2018-07-08T01:26:53.846Z,101983.73
2018-07-08T01:29:24.104Z,101980.30
2018-07-08T01:31:53.908Z,101981.00
2018-07-08T01:34:25.219Z,101981.56
2018-07-08T01:36:55.253Z,101971.93
2018-07-08T01:39:24.724Z,101981.38
2018-07-08T01:41:54.368Z,101983.39
2018-07-08T01:44:23.876Z,101984.81
2018-07-08T01:46:53.348Z,101995.10
2018-07-08T01:49:24.129Z,101993.34
2018-07-08T01:51:53.977Z,101993.59
2018-07-08T01:54:24.457Z,101998.54
2018-07-08T01:56:53.980Z,101996.67
2018-07-08T01:59:23.580Z,102002.58
2018-07-08T02:01:53.162Z,101999.31
2018-07-08T02:04:23.030Z,102002.53
2018-07-08T02:06:52.302Z,102000.89
2018-07-08T02:09:22.457Z,102002.66
2018-07-08T02:11:52.407Z,102003.75
2018-07-08T02:14:22.964Z,102007.23
2018-07-08T02:16:53.836Z,102011.62
2018-07-08T02:19:23.777Z,102010.66
2018-07-08T02:21:53.108Z,102014.42
2018-07-08T02:24:23.551Z,102015.70
2018-07-08T02:26:52.858Z,102014.53
2018-07-08T02:29:22.965Z,102022.12
2018-07-08T02:31:53.453Z,102022.16
2018-07-08T02:34:23.894Z,102025.06
2018-07-08T02:36:54.253Z,102026.00
2018-07-08T02:39:25.964Z,102030.87
2018-07-08T02:41:55.488Z,102032.67
2018-07-08T02:44:25.014Z,102033.91
2018-07-08T02:46:56.109Z,102033.73
2018-07-08T02:49:26.397Z,102040.89
2018-07-08T02:51:55.715Z,102042.27
2018-07-08T02:54:25.385Z,102030.89
2018-07-08T02:56:55.299Z,102039.35
2018-07-08T02:59:25.111Z,102033.91
2018-07-08T03:01:54.712Z,102042.88
2018-07-08T03:04:24.788Z,102036.39
2018-07-08T03:06:54.396Z,102031.20
2018-07-08T03:09:24.202Z,102026.92
2018-07-08T03:11:54.022Z,102028.86
2018-07-08T03:14:23.630Z,102030.02
2018-07-08T03:16:53.790Z,102032.80
2018-07-08T03:19:23.742Z,102028.83
2018-07-08T03:21:53.458Z,102037.84
2018-07-08T03:24:23.037Z,102030.27
2018-07-08T03:26:52.850Z,102032.41
2018-07-08T03:29:22.815Z,102035.39
2018-07-08T03:31:52.851Z,102036.11
2018-07-08T03:34:22.652Z,102035.20
2018-07-08T03:36:52.962Z,102038.11
2018-07-08T03:39:23.642Z,102039.34
2018-07-08T03:41:53.773Z,102040.02
2018-07-08T03:44:23.525Z,102041.21
2018-07-08T03:46:52.925Z,102036.96
2018-07-08T03:49:23.491Z,102037.09
2018-07-08T03:51:53.248Z,102040.43
2018-07-08T03:54:33.240Z,102045.28
2018-07-08T03:57:03.819Z,102039.00
2018-07-08T03:59:33.757Z,102042.57
2018-07-08T04:02:03.466Z,102039.98
2018-07-08T04:04:33.240Z,102049.16
2018-07-08T04:07:03.338Z,102045.89
2018-07-08T04:09:33.074Z,102052.95
2018-07-08T04:12:03.375Z,102054.52
2018-07-08T04:14:32.922Z,102053.33
2018-07-08T04:17:02.883Z,102050.45
2018-07-08T04:19:33.025Z,102052.18
2018-07-08T04:22:05.292Z,102043.48
2018-07-08T04:24:34.802Z,102048.75
2018-07-08T04:27:05.417Z,102049.60
2018-07-08T04:29:35.093Z,102049.53
2018-07-08T04:32:04.372Z,102053.34
2018-07-08T04:34:34.293Z,102064.28
2018-07-08T04:37:04.173Z,102060.44
2018-07-08T04:39:33.962Z,102065.84
2018-07-08T04:42:03.530Z,102068.70
2018-07-08T04:44:33.532Z,102073.69
2018-07-08T04:47:03.705Z,102074.81
2018-07-08T04:49:33.353Z,102077.30
2018-07-08T04:52:03.171Z,102083.44
2018-07-08T04:54:33.488Z,102087.45
2018-07-08T04:57:03.368Z,102090.27
2018-07-08T04:59:33.404Z,102091.69
2018-07-08T05:02:03.114Z,102087.07
2018-07-08T05:04:32.474Z,102080.39
2018-07-08T05:07:01.975Z,102087.63
2018-07-08T05:09:31.789Z,102085.97
2018-07-08T05:12:01.545Z,102087.52
2018-07-08T05:14:31.779Z,102088.45
2018-07-08T05:17:01.447Z,102093.31
2018-07-08T05:19:31.449Z,102096.98
2018-07-08T05:22:01.412Z,102093.88
2018-07-08T05:24:31.473Z,102092.84
2018-07-08T05:27:00.838Z,102100.95
2018-07-08T05:29:30.433Z,102095.63
2018-07-08T05:32:00.170Z,102100.94
2018-07-08T05:34:29.705Z,102097.61
2018-07-08T05:36:59.296Z,102096.30
2018-07-08T05:39:29.305Z,102101.98
2018-07-08T05:41:58.858Z,102097.22
2018-07-08T05:44:28.946Z,102110.47
2018-07-08T05:46:59.232Z,102104.41
2018-07-08T05:49:29.203Z,102099.81
2018-07-08T05:51:58.659Z,102101.63
2018-07-08T05:54:28.408Z,102104.14
2018-07-08T05:56:58.331Z,102103.38
2018-07-08T05:59:27.682Z,102096.25
2018-07-08T06:01:57.363Z,102094.67
2018-07-08T06:04:27.504Z,102096.09
2018-07-08T06:06:56.802Z,102089.78
2018-07-08T06:09:29.290Z,102088.57
2018-07-08T06:11:58.969Z,102086.27
2018-07-08T06:14:29.530Z,102077.87
2018-07-08T06:16:59.128Z,102085.09
2018-07-08T06:19:28.661Z,102088.63
2018-07-08T06:21:58.162Z,102085.45
2018-07-08T06:24:27.921Z,102083.41
2018-07-08T06:26:57.318Z,102083.46
2018-07-08T06:29:27.013Z,102090.89
2018-07-08T06:31:57.345Z,102088.39
2018-07-08T06:34:27.381Z,102094.52
2018-07-08T06:36:56.930Z,102094.77
2018-07-08T06:39:27.259Z,102089.14
2018-07-08T06:41:57.272Z,102093.78
2018-07-08T06:44:27.527Z,102090.60
2018-07-08T06:46:57.702Z,102094.14
2018-07-08T06:49:27.370Z,102092.17
2018-07-08T06:51:57.205Z,102095.39
2018-07-08T06:54:26.841Z,102094.36
2018-07-08T06:56:56.798Z,102095.89
2018-07-08T06:59:26.570Z,102097.87
2018-07-08T07:01:56.521Z,102095.53
2018-07-08T07:04:26.029Z,102099.70
2018-07-08T07:06:55.798Z,102096.78
2018-07-08T07:09:25.244Z,102096.33
2018-07-08T07:11:54.592Z,102092.61
2018-07-08T07:14:24.958Z,102086.20
2018-07-08T07:16:54.933Z,102090.84
2018-07-08T07:19:24.440Z,102099.48
2018-07-08T07:21:54.179Z,102103.27
2018-07-08T07:24:24.462Z,102100.84
2018-07-08T07:26:53.885Z,102100.54
2018-07-08T07:29:23.675Z,102103.73
2018-07-08T07:31:53.469Z,102101.95
2018-07-08T07:34:23.552Z,102103.72
2018-07-08T07:36:53.492Z,102094.70
2018-07-08T07:39:23.420Z,102091.30
2018-07-08T07:41:53.478Z,102091.50
2018-07-08T07:44:23.419Z,102103.48
2018-07-08T07:46:52.833Z,102100.75
2018-07-08T07:49:22.876Z,102101.56
2018-07-08T07:51:53.290Z,102098.42
2018-07-08T07:54:23.405Z,102101.30
2018-07-08T07:56:53.120Z,102097.41
2018-07-08T07:59:23.620Z,102104.17
2018-07-08T08:01:53.293Z,102100.38
2018-07-08T08:04:23.547Z,102096.48
2018-07-08T08:06:53.330Z,102095.34
2018-07-08T08:09:23.271Z,102097.07
2018-07-08T08:11:53.274Z,102095.34
2018-07-08T08:14:24.752Z,102097.55
2018-07-08T08:16:55.207Z,102100.48
2018-07-08T08:19:24.611Z,102093.68
2018-07-08T08:21:54.602Z,102096.06
2018-07-08T08:24:24.387Z,102092.56
2018-07-08T08:26:53.992Z,102092.64
2018-07-08T08:29:23.553Z,102092.44
2018-07-08T08:31:53.944Z,102094.61
2018-07-08T08:34:56.506Z,102093.85
2018-07-08T08:37:27.109Z,102098.33
2018-07-08T08:39:56.605Z,102095.16
2018-07-08T08:42:26.921Z,102097.43
2018-07-08T08:44:57.337Z,102095.94
2018-07-08T08:47:27.732Z,102091.23
2018-07-08T08:49:57.536Z,102096.72
2018-07-08T08:52:27.010Z,102097.00
2018-07-08T08:54:57.461Z,102095.67
2018-07-08T08:57:27.292Z,102092.84
2018-07-08T08:59:57.625Z,102095.61
2018-07-08T09:02:27.359Z,102093.21
2018-07-08T09:04:57.054Z,102099.11
2018-07-08T09:07:27.007Z,102093.29
2018-07-08T09:09:56.844Z,102096.42
2018-07-08T09:12:26.136Z,102099.56
2018-07-08T09:14:55.981Z,102102.33
2018-07-08T09:17:25.909Z,102102.44
2018-07-08T09:19:55.362Z,102097.59
2018-07-08T09:22:28.362Z,102099.84
2018-07-08T09:24:59.124Z,102101.28
2018-07-08T09:27:29.554Z,102099.43
2018-07-08T09:29:59.082Z,102094.94
2018-07-08T09:32:28.443Z,102084.52
2018-07-08T09:34:57.936Z,102086.22
2018-07-08T09:37:27.495Z,102087.32
2018-07-08T09:39:56.821Z,102084.94
2018-07-08T09:42:26.468Z,102089.89
2018-07-08T09:44:56.280Z,102089.28
2018-07-08T09:47:26.085Z,102095.52
2018-07-08T09:49:55.792Z,102087.42
2018-07-08T09:52:25.412Z,102084.51
2018-07-08T09:54:55.503Z,102078.95
2018-07-08T09:57:26.094Z,102076.90
2018-07-08T09:59:59.139Z,102084.30
2018-07-08T10:02:29.210Z,102082.66
2018-07-08T10:04:58.902Z,102080.98
2018-07-08T10:07:28.354Z,102079.37
2018-07-08T10:09:58.155Z,102084.17
2018-07-08T10:12:28.238Z,102076.56
2018-07-08T10:14:57.982Z,102081.04
2018-07-08T10:17:27.757Z,102075.00
2018-07-08T10:20:01.134Z,102079.23
2018-07-08T10:22:31.057Z,102077.81
2018-07-08T10:25:00.942Z,102078.90
2018-07-08T10:27:46.408Z,102076.16
2018-07-08T10:30:15.862Z,102063.97
2018-07-08T10:32:45.703Z,102073.28
2018-07-08T10:35:25.210Z,102063.80
2018-07-08T10:37:54.968Z,102066.61
2018-07-08T10:40:24.818Z,102064.80
2018-07-08T10:42:54.389Z,102059.91
2018-07-08T10:45:24.444Z,102062.23
2018-07-08T10:47:53.863Z,102066.39
2018-07-08T10:50:24.162Z,102057.52
2018-07-08T10:52:54.486Z,102064.86
2018-07-08T10:55:24.848Z,102063.32
2018-07-08T10:57:54.056Z,102062.86
2018-07-08T11:00:24.458Z,102060.23
2018-07-08T11:02:58.227Z,102057.87
2018-07-08T11:05:29.944Z,102053.75
2018-07-08T11:07:59.757Z,102051.03
2018-07-08T11:10:29.360Z,102048.88
2018-07-08T11:15:28.335Z,102040.52
2018-07-08T11:17:58.101Z,102030.92
2018-07-08T11:20:29.036Z,102023.83
2018-07-08T11:22:58.910Z,102028.83
2018-07-08T11:25:28.884Z,102027.76
2018-07-08T11:27:58.297Z,102017.07
2018-07-08T11:30:27.820Z,102020.34
2018-07-08T11:32:57.630Z,102020.91
2018-07-08T11:35:26.903Z,102023.11
2018-07-08T11:37:57.579Z,102016.84
2018-07-08T11:40:27.068Z,102022.34
2018-07-08T11:42:56.767Z,102014.92
2018-07-08T11:45:26.402Z,102014.40
2018-07-08T11:47:56.412Z,102022.36
2018-07-08T11:50:25.960Z,102009.72
2018-07-08T11:52:56.047Z,102014.12
2018-07-08T11:55:26.259Z,102011.37
2018-07-08T11:57:56.245Z,102009.47
2018-07-08T12:00:26.164Z,102003.69
2018-07-08T12:02:56.116Z,102010.56
2018-07-08T12:05:25.506Z,102002.28
2018-07-08T12:07:55.074Z,101998.45
2018-07-08T12:10:25.225Z,102000.06
2018-07-08T12:12:55.126Z,101995.63
2018-07-08T12:15:24.656Z,101997.84
2018-07-08T12:17:54.361Z,102000.05
2018-07-08T12:20:24.867Z,101992.97
2018-07-08T12:22:55.063Z,101994.03
2018-07-08T12:25:24.898Z,101988.73
2018-07-08T12:27:54.698Z,101990.13
2018-07-08T12:30:24.258Z,101995.93
2018-07-08T12:32:54.419Z,101986.89
2018-07-08T12:35:24.295Z,101987.16
2018-07-08T12:37:54.186Z,101982.43
2018-07-08T12:40:24.134Z,101987.62
2018-07-08T12:42:53.837Z,101985.06
2018-07-08T12:45:24.068Z,101982.31
2018-07-08T12:47:54.238Z,101975.69
2018-07-08T12:50:24.297Z,101975.91
2018-07-08T12:52:54.041Z,101972.57
2018-07-08T12:55:23.896Z,101980.23
2018-07-08T12:57:53.431Z,101972.55
2018-07-08T13:00:23.253Z,101975.55
2018-07-08T13:02:52.821Z,101968.04
2018-07-08T13:05:22.199Z,101964.88
2018-07-08T13:07:51.962Z,101967.44
2018-07-08T13:10:21.579Z,101957.89
2018-07-08T13:12:51.676Z,101960.28
2018-07-08T13:15:21.378Z,101965.80
2018-07-08T13:17:51.630Z,101954.86
2018-07-08T13:20:21.009Z,101952.66
2018-07-08T13:22:52.094Z,101951.84
2018-07-08T13:25:21.758Z,101956.50
2018-07-08T13:27:52.016Z,101961.30
2018-07-08T13:30:21.962Z,101948.38
2018-07-08T13:32:52.137Z,101965.83
2018-07-08T13:35:22.284Z,101955.39
2018-07-08T13:37:52.314Z,101959.95
2018-07-08T13:40:21.723Z,101965.39
2018-07-08T13:42:52.014Z,101956.30
2018-07-08T13:45:21.425Z,101949.21
2018-07-08T13:47:51.198Z,101943.17
2018-07-08T13:50:20.912Z,101949.39
2018-07-08T13:52:51.275Z,101948.48
2018-07-08T13:55:21.230Z,101952.04
2018-07-08T13:57:50.539Z,101941.91
2018-07-08T14:00:20.292Z,101940.44
2018-07-08T14:02:50.290Z,101940.88
2018-07-08T14:05:20.209Z,101934.33
2018-07-08T14:07:50.171Z,101943.30
2018-07-08T14:10:20.322Z,101937.59
2018-07-08T14:12:50.496Z,101932.75
2018-07-08T14:15:20.551Z,101926.64
2018-07-08T14:17:50.551Z,101920.83
2018-07-08T14:20:20.307Z,101922.35
2018-07-08T14:22:51.061Z,101924.27
2018-07-08T14:25:21.371Z,101917.41
2018-07-08T14:27:51.268Z,101922.03
2018-07-08T14:30:21.105Z,101915.19
2018-07-08T14:32:51.628Z,101922.35
2018-07-08T14:35:21.250Z,101923.03
2018-07-08T14:37:51.113Z,101915.16
2018-07-08T14:40:20.614Z,101907.59
2018-07-08T14:42:50.326Z,101914.87
2018-07-08T14:45:19.671Z,101910.70
2018-07-08T14:47:49.254Z,101912.22
2018-07-08T14:50:19.174Z,101906.65
2018-07-08T14:52:48.686Z,101898.70
2018-07-08T14:55:18.222Z,101895.89
2018-07-08T14:57:48.096Z,101900.59
2018-07-08T15:00:18.326Z,101901.79
2018-07-08T15:02:48.149Z,101900.41
2018-07-08T15:05:17.774Z,101892.08
2018-07-08T15:07:51.257Z,101901.40
2018-07-08T15:10:20.802Z,101893.76
2018-07-08T15:12:51.029Z,101894.09
2018-07-08T15:15:20.963Z,101882.67
2018-07-08T15:17:56.103Z,101894.48
2018-07-08T15:20:26.133Z,101890.86
2018-07-08T15:22:55.853Z,101883.75
2018-07-08T15:25:25.410Z,101885.70
2018-07-08T15:27:54.771Z,101887.20
2018-07-08T15:30:25.082Z,101884.11
2018-07-08T15:32:54.532Z,101881.53
2018-07-08T15:35:23.820Z,101885.34
2018-07-08T15:37:53.380Z,101876.95
2018-07-08T15:40:23.082Z,101879.62
2018-07-08T15:42:52.960Z,101879.89
2018-07-08T15:45:23.452Z,101879.14
2018-07-08T15:47:53.336Z,101874.31
2018-07-08T15:50:27.244Z,101873.39
2018-07-08T15:52:56.503Z,101876.30
2018-07-08T15:55:26.059Z,101870.52
2018-07-08T15:57:55.852Z,101872.72
2018-07-08T16:00:25.516Z,101866.12
2018-07-08T16:02:55.785Z,101868.09
2018-07-08T16:05:26.128Z,101862.88
2018-07-08T16:07:55.902Z,101861.56
2018-07-08T16:10:26.220Z,101856.85
2018-07-08T16:12:56.368Z,101858.72
2018-07-08T16:15:25.679Z,101858.34
2018-07-08T16:17:55.400Z,101855.61
2018-07-08T16:20:25.187Z,101860.55
2018-07-08T16:22:55.130Z,101865.17
2018-07-08T16:25:24.680Z,101860.83
2018-07-08T16:27:54.338Z,101856.67
2018-07-08T16:30:23.902Z,101857.48
2018-07-08T16:32:53.542Z,101856.41
2018-07-08T16:35:24.139Z,101851.91
2018-07-08T16:37:54.212Z,101859.06
2018-07-08T16:40:24.356Z,101858.77
2018-07-08T16:42:54.501Z,101852.70
2018-07-08T16:45:28.606Z,101848.07
2018-07-08T16:47:57.976Z,101857.67
2018-07-08T16:50:28.170Z,101854.54
2018-07-08T16:52:58.368Z,101858.40
2018-07-08T16:55:28.040Z,101851.48
2018-07-08T16:57:57.972Z,101859.80
2018-07-08T17:00:27.842Z,101853.78
2018-07-08T17:02:57.186Z,101852.16
2018-07-08T17:05:28.111Z,101849.45
2018-07-08T17:07:58.364Z,101846.41
2018-07-08T17:10:28.979Z,101850.48
2018-07-08T17:12:59.062Z,101849.89
2018-07-08T17:15:28.866Z,101849.65
2018-07-08T17:17:58.248Z,101854.86
2018-07-08T17:20:27.863Z,101853.86
2018-07-08T17:22:57.723Z,101856.87
2018-07-08T17:25:30.735Z,101856.13
2018-07-08T17:28:00.052Z,101852.57
2018-07-08T17:30:29.467Z,101846.77
2018-07-08T17:32:58.738Z,101857.48
2018-07-08T17:35:30.081Z,101848.73
2018-07-08T17:38:00.142Z,101848.95
2018-07-08T17:40:30.359Z,101847.53
2018-07-08T17:43:00.404Z,101842.36
2018-07-08T17:45:30.229Z,101846.55
2018-07-08T17:48:00.159Z,101853.72
2018-07-08T17:50:29.908Z,101848.77
2018-07-08T17:53:00.028Z,101851.28
2018-07-08T17:55:29.679Z,101844.94
2018-07-08T17:57:59.476Z,101849.13
2018-07-08T18:00:29.205Z,101853.60
2018-07-08T18:02:58.809Z,101845.05
2018-07-08T18:05:29.115Z,101857.16
2018-07-08T18:07:58.755Z,101847.28
2018-07-08T18:10:28.523Z,101858.02
2018-07-08T18:12:58.145Z,101850.03
2018-07-08T18:15:27.786Z,101846.42
2018-07-08T18:17:57.297Z,101860.80
2018-07-08T18:20:26.869Z,101854.48
2018-07-08T18:22:57.245Z,101859.48
2018-07-08T18:25:27.042Z,101853.70
2018-07-08T18:27:56.944Z,101851.81
2018-07-08T18:30:26.598Z,101857.31
2018-07-08T18:32:56.067Z,101851.30
2018-07-08T18:35:25.901Z,101850.48
2018-07-08T18:37:56.173Z,101855.72
2018-07-08T18:40:26.600Z,101855.50
2018-07-08T18:42:56.413Z,101850.52
2018-07-08T18:45:26.407Z,101849.43
2018-07-08T18:47:56.213Z,101851.62
2018-07-08T18:50:26.367Z,101856.92
2018-07-08T18:52:56.499Z,101853.34
2018-07-08T18:55:26.311Z,101854.45
2018-07-08T18:57:57.882Z,101849.52
2018-07-08T19:00:28.704Z,101852.28
2018-07-08T19:02:58.327Z,101856.42
2018-07-08T19:05:27.934Z,101857.25
2018-07-08T19:07:57.426Z,101857.28
2018-07-08T19:10:30.907Z,101855.67
2018-07-08T19:13:01.152Z,101860.36
2018-07-08T19:15:30.489Z,101865.87
2018-07-08T19:18:00.668Z,101868.09
2018-07-08T19:20:29.978Z,101872.75
2018-07-08T19:22:59.385Z,101863.17
2018-07-08T19:25:29.115Z,101862.39
2018-07-08T19:27:58.986Z,101867.91
2018-07-08T19:30:31.704Z,101869.82
2018-07-08T19:33:01.269Z,101873.66
2018-07-08T19:35:31.408Z,101877.78
2018-07-08T19:38:01.214Z,101875.62
2018-07-08T19:40:30.656Z,101871.79
2018-07-08T19:43:00.096Z,101875.63
2018-07-08T19:45:29.697Z,101868.78
2018-07-08T19:47:59.407Z,101877.84
2018-07-08T19:50:28.759Z,101879.51
2018-07-08T19:52:58.585Z,101883.11
2018-07-08T19:55:29.085Z,101894.34
2018-07-08T19:57:58.963Z,101894.11
2018-07-08T20:00:28.982Z,101895.22
2018-07-08T20:02:58.859Z,101893.84
2018-07-08T20:05:28.577Z,101897.41
2018-07-08T20:07:58.952Z,101896.61
2018-07-08T20:10:29.105Z,101897.98
2018-07-08T20:12:59.205Z,101904.00
2018-07-08T20:15:28.985Z,101903.73
2018-07-08T20:17:58.929Z,101905.66
2018-07-08T20:20:28.531Z,101910.06
2018-07-08T20:22:58.210Z,101906.73
2018-07-08T20:25:28.252Z,101908.94
2018-07-08T20:27:57.725Z,101907.01
2018-07-08T20:30:27.753Z,101919.08
2018-07-08T20:32:57.313Z,101920.45
2018-07-08T20:35:27.080Z,101920.73
2018-07-08T20:37:56.323Z,101923.75
2018-07-08T20:40:29.726Z,101921.00
2018-07-08T20:42:59.391Z,101927.02
2018-07-08T20:45:33.283Z,101922.08
2018-07-08T20:48:03.163Z,101925.91
2018-07-08T20:50:33.146Z,101922.64
2018-07-08T20:53:02.939Z,101924.01
2018-07-08T20:55:32.850Z,101923.72
2018-07-08T20:58:02.163Z,101928.92
2018-07-08T21:00:31.655Z,101932.47
2018-07-08T21:03:01.385Z,101928.06
2018-07-08T21:05:31.266Z,101928.05
2018-07-08T21:08:01.319Z,101931.63
2018-07-08T21:10:30.795Z,101929.69
2018-07-08T21:13:01.269Z,101933.27
2018-07-08T21:15:31.693Z,101936.19
2018-07-08T21:18:01.388Z,101938.67
2018-07-08T21:20:31.277Z,101946.05
2018-07-08T21:23:00.848Z,101946.05
2018-07-08T21:25:31.515Z,101940.04
2018-07-08T21:28:02.067Z,101943.83
2018-07-08T21:30:32.162Z,101946.55
2018-07-08T21:33:01.713Z,101944.05
2018-07-08T21:35:31.227Z,101947.34
2018-07-08T21:38:01.107Z,101947.30
2018-07-08T21:40:31.107Z,101945.41
2018-07-08T21:43:00.352Z,101940.14
2018-07-08T21:45:30.015Z,101942.33
2018-07-08T21:48:00.063Z,101943.14
2018-07-08T21:50:30.471Z,101943.44
2018-07-08T21:53:00.962Z,101939.55
2018-07-08T21:55:30.724Z,101945.48
2018-07-08T21:58:00.547Z,101946.04
2018-07-08T22:00:32.256Z,101948.22
2018-07-08T22:03:02.412Z,101952.31
2018-07-08T22:05:32.738Z,101948.77
2018-07-08T22:08:03.513Z,101954.53
2018-07-08T22:10:33.774Z,101950.39
2018-07-08T22:13:04.207Z,101950.33
2018-07-08T22:15:33.918Z,101952.17
2018-07-08T22:18:03.768Z,101953.89
2018-07-08T22:20:33.634Z,101945.66
2018-07-08T22:23:03.544Z,101951.91
2018-07-08T22:25:33.712Z,101956.61
2018-07-08T22:28:04.224Z,101946.67
2018-07-08T22:30:33.826Z,101954.50
2018-07-08T22:33:03.269Z,101956.66
2018-07-08T22:35:33.439Z,101957.41
2018-07-08T22:38:03.314Z,101956.91
2018-07-08T22:40:33.510Z,101959.11
2018-07-08T22:43:03.599Z,101955.30
2018-07-08T22:45:33.229Z,101958.51
2018-07-08T22:48:02.852Z,101955.20
2018-07-08T22:50:32.475Z,101961.67
2018-07-08T22:53:02.653Z,101948.87
2018-07-08T22:55:32.466Z,101961.14
2018-07-08T22:58:01.936Z,101965.24
2018-07-08T23:00:42.242Z,101958.94
2018-07-08T23:03:27.781Z,101957.81
2018-07-08T23:05:57.320Z,101960.06
2018-07-08T23:08:26.708Z,101963.54
2018-07-08T23:10:57.616Z,101964.61
2018-07-08T23:13:27.624Z,101957.79
2018-07-08T23:15:57.303Z,101956.38
2018-07-08T23:18:28.118Z,101951.47
2018-07-08T23:20:58.264Z,101954.11
2018-07-08T23:23:27.977Z,101953.28
2018-07-08T23:25:57.552Z,101952.70
2018-07-08T23:28:27.254Z,101955.59
2018-07-08T23:30:57.208Z,101962.11
2018-07-08T23:33:27.617Z,101960.38
2018-07-08T23:35:57.548Z,101960.32
2018-07-08T23:38:27.472Z,101954.88
2018-07-08T23:40:57.791Z,101959.62
2018-07-08T23:43:28.282Z,101958.20
2018-07-08T23:45:57.783Z,101964.34
2018-07-08T23:48:28.146Z,101962.94
2018-07-08T23:50:58.217Z,101962.63
2018-07-08T23:53:28.096Z,101955.45
2018-07-08T23:55:57.846Z,101961.46
2018-07-08T23:58:27.148Z,101954.89
